• Join FlightAware (Why Join?)
  • Login
  • US Flag 
Trick or treat! (Boo!!) 
07:53PM EDT


 

Airport Tracker/Info


-or-


 

Live Flight TrackerFlight Track Log ✈ BOE5 ✈ 19-Apr-2013 ✈ KSBD - KSBD

Flight Track Log - Related Links

Times and Time Zones

All times are in EDT time to prevent confusion due to time zone crossing. See the BOE5 flight status page for this flight to view local times or setup timezone preferences in your user account.

Time Position Orientation Groundspeed Altitude Reporting Facility
EDT Latitude Longitude Course Direction KTS MPH feet Rate Location/Type
11:33AM 34.0667 -117.3000 239° Southwest 248 285 2,500  Level Southern California TRACON
11:34AM 34.0333 -117.3833 244° Southwest 254 292 4,400 1,080 Climbing Southern California TRACON
11:36AM 34.0469 -117.5492 276° West 260 299 6,000 660 Climbing Los Angeles Center
11:37AM 34.0647 -117.6544 282° West 265 305 6,500 900 Climbing Los Angeles Center
11:38AM 34.0954 -117.2349 239° Southwest  Level Estimated
11:38AM 34.0983 -117.7372 296° West 272 313 7,900  Level Los Angeles Center
11:39AM 34.1417 -117.8094 306° West 269 310 10,600 2,820 Climbing Los Angeles Center
11:40AM 34.1864 -117.8792 308° West 266 306 13,800 2,640 Climbing Los Angeles Center
11:41AM 34.2344 -117.9556 307° West 282 325 16,100 2,580 Climbing Los Angeles Center
11:42AM 34.2933 -118.0481 308° West 292 336 19,200 2,160 Climbing Los Angeles Center
11:43AM 34.3464 -118.1308 308° West 313 360 20,600 1,320 Climbing Los Angeles Center
11:44AM 34.4092 -118.2325 307° West 376 433 22,000 1,740 Climbing Los Angeles Center
11:45AM 34.4750 -118.3378 307° West 393 452 24,300 2,100 Climbing Los Angeles Center
11:46AM 34.5419 -118.4450 307° West 404 465 26,400 1,860 Climbing Los Angeles Center
11:47AM 34.6119 -118.5553 308° West 416 479 28,200 1,740 Climbing Los Angeles Center
11:48AM 34.6981 -118.6939 307° West 430 495 30,000 1,560 Climbing Los Angeles Center
11:49AM 34.7736 -118.8144 307° West 448 516 31,500 1,440 Climbing Los Angeles Center
11:50AM 34.8661 -118.9142 319° Northwest 455 524 33,000 1,440 Climbing Los Angeles Center
11:51AM 34.9722 -119.0014 326° Northwest 444 511 34,500 1,200 Climbing Los Angeles Center
11:52AM 35.0636 -119.1050 317° Northwest 464 534 35,500 1,260 Climbing Los Angeles Center
11:53AM 35.1297 -119.2367 302° West 458 527 37,200 1,200 Climbing Los Angeles Center
11:54AM 35.2083 -119.3906 302° West 448 516 38,000 360 Climbing Los Angeles Center
11:56AM 35.2739 -119.5186 302° West 446 513 38,000  Level Los Angeles Center
11:57AM 35.3383 -119.6472 302° West 449 517 38,000  Level Los Angeles Center
11:57AM 35.3761 -119.7236 301° West 443 510 38,000  Level Los Angeles Center
11:58AM 35.4261 -119.8231 302° West 444 511 38,000 480 Level Oakland Center
11:59AM 35.4894 -119.9497 302° West 441 507 39,000 480 Climbing Oakland Center
12:00PM 35.5650 -120.1006 302° West 439 505 39,000 -60 Level Oakland Center
12:01PM 35.6267 -120.2269 301° West 438 504 38,900 -60 Descending Oakland Center
12:02PM 35.6886 -120.3536 301° West 439 505 38,900  Level Oakland Center
12:03PM 35.7508 -120.4808 301° West 440 506 38,900  Level Oakland Center
12:04PM 35.8131 -120.6083 301° West 439 505 38,900  Level Oakland Center
12:05PM 35.8839 -120.7294 306° West 441 507 38,900  Level Oakland Center
12:06PM 35.9778 -120.8669 310° West 438 504 38,900  Level Oakland Center
12:07PM 36.0547 -120.9847 309° West 442 509 38,900  Level Oakland Center
12:08PM 36.1325 -121.1031 309° West 442 509 38,900  Level Oakland Center
12:09PM 36.2089 -121.2206 309° West 442 509 38,900  Level Oakland Center
12:10PM 36.2844 -121.3392 308° West 438 504 38,900  Level Oakland Center
12:11PM 36.3619 -121.4544 310° West 440 506 39,000  Climbing Oakland Center
12:12PM 36.4383 -121.5756 308° West 443 510 38,900  Descending Oakland Center
12:13PM 36.5144 -121.6942 309° West 440 506 39,000  Climbing Oakland Center
12:15PM 36.4461 -121.5600 122° Southeast  Level Estimated
12:16PM 36.7153 -122.0017 122° Southeast 440 506 38,900  Level Los Angeles Center
12:16PM 36.7503 -122.0667 304° West 440 506 38,900  Level Oakland Center
12:17PM 36.8294 -122.1833 310° West 438 504 39,000  Climbing Oakland Center
12:18PM 36.9056 -122.3044 308° West 442 509 38,900  Descending Oakland Center
12:20PM 36.9842 -122.4575 303° West 446 513 39,000  Climbing Oakland Center
12:21PM 37.0278 -122.6033 291° West 446 513 38,900 -60 Descending Oakland Center
12:22PM 37.0608 -122.7525 286° West 444 511 38,900  Level Oakland Center
12:23PM 37.0961 -122.8994 287° West 442 509 39,000  Climbing Oakland Center
12:24PM 37.1303 -123.0492 286° West 446 513 38,900 -60 Descending Oakland Center
12:25PM 37.1644 -123.1989 286° West 448 516 38,900  Level Oakland Center
12:26PM 37.1981 -123.3483 286° West 444 511 38,900  Level Oakland Center
12:27PM 37.2314 -123.4972 286° West 443 510 39,000  Climbing Oakland Center
12:28PM 37.2644 -123.6461 286° West 443 510 38,900 -60 Descending Oakland Center
12:29PM 37.2983 -123.7942 286° West 442 509 38,900  Level Oakland Center
12:30PM 37.3311 -123.9706 283° West 433 498 39,000  Climbing Oakland Center
12:31PM 37.4167 -124.0778 315° West 435 501 38,900  Descending Oakland Center
12:32PM 37.5156 -124.1664 325° Northwest 435 501 39,000  Climbing Oakland Center
12:33PM 37.6156 -124.2561 325° Northwest 439 505 38,900  Descending Oakland Center
12:34PM 37.7164 -124.3467 325° Northwest 444 511 39,000  Climbing Oakland Center
12:35PM 37.8186 -124.4386 325° Northwest 447 514 38,900 -60 Descending Oakland Center
12:36PM 37.9203 -124.5286 325° Northwest 446 513 38,900  Level Oakland Center
12:37PM 38.0164 -124.6172 324° Northwest 437 503 39,000  Climbing Oakland Center
12:38PM 38.1111 -124.7036 324° Northwest 427 491 38,900 -60 Descending Oakland Center
12:39PM 38.2064 -124.7917 324° Northwest 423 487 38,900  Level Oakland Center
12:40PM 38.3186 -124.8969 324° Northwest 422 486 38,900  Level Oakland Center
12:41PM 38.4144 -124.9853 324° Northwest 423 487 38,900  Level Oakland Center
12:42PM 38.5089 -125.0742 324° Northwest 423 487 38,900  Level Oakland Center
12:43PM 38.6056 -125.1617 325° Northwest 424 488 38,900  Level Oakland Center
12:44PM 38.6917 -125.2431 324° Northwest 424 488 38,900  Level Oakland Center
12:45PM 38.8064 -125.3506 324° Northwest 425 489 38,900  Level Oakland Center
12:46PM 38.9031 -125.4392 325° Northwest 426 490 38,900  Level Oakland Center
12:47PM 38.9994 -125.5289 324° Northwest 426 490 38,900  Level Oakland Center
12:48PM 39.0953 -125.6192 324° Northwest 427 491 38,900  Level Oakland Center
12:49PM 39.1989 -125.7139 325° Northwest 423 487 38,900  Level Oakland Center
12:50PM 39.2953 -125.8042 324° Northwest 426 490 38,900  Level Oakland Center
12:51PM 39.3911 -125.8925 325° Northwest 425 489 39,000  Climbing Oakland Center
12:52PM 39.4789 -125.9753 324° Northwest 424 488 38,900 -60 Descending Oakland Center
12:53PM 39.5750 -126.0642 325° Northwest 424 488 38,900  Level Oakland Center
12:54PM 39.6906 -126.1728 324° Northwest 426 490 39,000  Climbing Oakland Center
12:55PM 39.7869 -126.2614 325° Northwest 425 489 38,900 -60 Descending Oakland Center
12:56PM 39.8825 -126.3506 324° Northwest 425 489 38,900  Level Oakland Center
12:57PM 39.9803 -126.4353 326° Northwest 421 484 38,900  Level Oakland Center
12:58PM 40.0975 -126.4669 348° North 426 490 38,900  Level Oakland Center
12:59PM 40.2214 -126.4375 10° North 449 517 38,900  Level Oakland Center
01:00PM 40.3450 -126.3972 14° North 456 525 39,000  Climbing Oakland Center
01:01PM 40.4697 -126.3583 13° North 458 527 39,000 -60 Level Oakland Center
01:03PM 40.5925 -126.3192 14° North 457 526 38,900 -60 Descending Oakland Center
01:04PM 40.7411 -126.2714 14° North 456 525 38,900  Level Oakland Center
01:05PM 40.8678 -126.2328 13° North 459 528 38,900  Level Oakland Center
01:06PM 40.9939 -126.1922 14° North 462 532 38,900  Level Oakland Center
01:07PM 41.1211 -126.1508 14° North 465 535 38,900  Level Oakland Center
01:08PM 41.2475 -126.1111 13° North 466 536 38,900  Level Seattle Center
01:09PM 41.3736 -126.0686 14° North 467 537 39,000  Climbing Seattle Center
01:10PM 41.5008 -126.0297 13° North 468 539 39,000 -60 Level Seattle Center
01:11PM 41.6267 -125.9881 14° North 468 539 38,900  Descending Seattle Center
01:12PM 41.7497 -125.9506 13° North 462 532 39,000  Climbing Seattle Center
01:13PM 41.8808 -125.9047 15° North 482 555 39,000  Level Seattle Center
01:14PM 42.0089 -125.8628 14° North 474 545 39,000 -60 Level Seattle Center
01:15PM 42.1356 -125.8214 14° North 471 542 38,900  Descending Seattle Center
01:16PM 42.2606 -125.7797 14° North 465 535 39,000  Climbing Seattle Center
01:17PM 42.4114 -125.7292 14° North 465 535 39,000  Level Seattle Center
01:18PM 42.5364 -125.6867 14° North 464 534 39,000  Level Seattle Center
01:19PM 42.6603 -125.6464 13° North 460 529 39,000 -60 Level Seattle Center
01:20PM 42.7833 -125.6067 13° North 457 526 38,900  Descending Seattle Center
01:21PM 42.8981 -125.5694 13° North 451 519 39,000  Climbing Seattle Center
01:22PM 43.0175 -125.5286 14° North 445 512 39,000 -60 Level Seattle Center
01:23PM 43.1375 -125.4878 14° North 445 512 38,900 -60 Descending Seattle Center
01:24PM 43.2614 -125.4553 11° North 455 524 38,900  Level Seattle Center
01:25PM 43.3828 -125.4158 13° North 451 519 39,000  Climbing Seattle Center
01:26PM 43.5014 -125.3717 15° North 446 513 38,900  Descending Seattle Center
01:27PM 43.6225 -125.3289 14° North 448 516 39,000  Climbing Seattle Center
01:28PM 43.7414 -125.2831 16° North 447 514 39,000 -60 Level Seattle Center
01:29PM 43.8875 -125.2308 14° North 458 527 38,900  Descending Seattle Center
01:30PM 44.0072 -125.1892 14° North 450 518 39,000  Climbing Seattle Center
01:31PM 44.1286 -125.1467 14° North 452 520 39,000  Level Seattle Center
01:32PM 44.2522 -125.1022 14° North 459 528 39,000  Level Seattle Center
01:33PM 44.3831 -125.0586 13° North 476 548 39,000 -60 Level Seattle Center
01:34PM 44.5089 -125.0122 15° North 472 543 38,900 -60 Descending Seattle Center
01:35PM 44.6367 -124.9650 15° North 473 544 38,900  Level Seattle Center
01:36PM 44.7667 -124.9183 14° North 477 549 38,900  Level Seattle Center
01:37PM 44.8939 -124.8722 14° North 475 547 38,900  Level Seattle Center
01:38PM 45.0189 -124.8267 14° North 465 535 39,000  Climbing Seattle Center
01:39PM 45.1458 -124.7800 15° North 468 539 38,900  Descending Seattle Center
01:40PM 45.2714 -124.7331 15° North 466 536 39,000  Climbing Seattle Center
01:41PM 45.3975 -124.6864 15° North 468 539 39,000 -60 Level Seattle Center
01:42PM 45.5228 -124.6394 15° North 465 535 38,900 -60 Descending Seattle Center
01:43PM 45.6481 -124.5928 15° North 464 534 38,900  Level Seattle Center
01:44PM 45.7739 -124.5453 15° North 467 537 38,900  Level Seattle Center
01:45PM 45.8997 -124.4975 15° North 469 540 38,900  Level Seattle Center
01:46PM 46.0522 -124.4375 15° North 473 544 38,900  Level Seattle Center
01:47PM 46.1811 -124.3894 14° North 476 548 38,900  Level Seattle Center
01:48PM 46.3083 -124.3403 15° North 474 545 38,900  Level Seattle Center
01:49PM 46.4406 -124.2892 15° North 474 545 38,900  Level Seattle Center
01:50PM 46.5692 -124.2414 14° North 479 551 38,900  Level Seattle Center
01:51PM 46.6964 -124.1911 15° North 476 548 38,900  Level Seattle Center
01:52PM 46.8256 -124.1522 12° North 474 545 38,900  Level Seattle Center
01:53PM 46.9503 -124.1925 348° North 456 525 39,000  Climbing Seattle Center
01:54PM 47.0492 -124.3014 323° Northwest 442 509 38,900 -60 Descending Seattle Center
01:55PM 47.1069 -124.4614 298° West 445 512 38,900  Level Seattle Center
01:56PM 47.1361 -124.6344 284° West 438 504 38,900  Level Seattle Center
01:57PM 47.1667 -124.8108 284° West 444 511 39,000  Climbing Seattle Center
01:58PM 47.1961 -124.9867 284° West 443 510 39,000  Level Seattle Center
01:59PM 47.2269 -125.1606 285° West 441 507 39,000 -60 Level Seattle Center
02:00PM 47.2569 -125.3339 284° West 438 504 38,900  Descending Seattle Center
02:01PM 47.2869 -125.5081 284° West 438 504 39,000  Climbing Seattle Center
02:02PM 47.3161 -125.6786 284° West 431 496 38,900 -60 Descending Seattle Center
02:03PM 47.3458 -125.8494 284° West 431 496 38,900  Level Seattle Center
02:04PM 47.3853 -126.0517 286° West 430 495 38,900  Level Seattle Center
02:05PM 47.4214 -126.2217 287° West 432 497 38,900  Level Seattle Center
02:06PM 47.4542 -126.3919 286° West 432 497 38,900  Level Seattle Center
02:08PM 47.4861 -126.5628 286° West 433 498 38,900  Level Seattle Center
02:09PM 47.5192 -126.7317 286° West 429 494 38,900  Level Seattle Center
02:10PM 47.5714 -126.8900 296° West 433 498 38,900  Level Seattle Center
02:11PM 47.6642 -126.9958 322° Northwest 426 490 39,000  Climbing Seattle Center
02:12PM 47.7892 -126.9714 North 462 532 39,000 -60 Level Seattle Center
02:13PM 47.8831 -126.8219 47° Northeast 503 579 38,900 -60 Descending Seattle Center
02:14PM 47.8836 -126.6069 90° East 538 619 38,900  Level Seattle Center
02:15PM 47.8044 -126.4122 121° Southeast 550 633 39,000  Climbing Seattle Center
02:16PM 47.7253 -126.2214 122° Southeast 548 631 39,000  Level Seattle Center
02:17PM 47.6469 -126.0317 121° Southeast 544 626 39,000 -60 Level Seattle Center
02:18PM 47.5531 -125.8033 121° Southeast 544 626 38,900 -60 Descending Seattle Center
02:19PM 47.4750 -125.6142 121° Southeast 543 625 38,900  Level Seattle Center
02:20PM 47.3956 -125.4217 121° Southeast 550 633 39,000  Climbing Seattle Center
02:21PM 47.3161 -125.2289 121° Southeast 554 638 39,000 -60 Level Seattle Center
02:22PM 47.2367 -125.0364 121° Southeast 553 636 38,900 -60 Descending Seattle Center
02:23PM 47.1578 -124.8447 121° Southeast 552 635 38,900  Level Seattle Center
02:24PM 47.0797 -124.6553 121° Southeast 549 632 39,000  Climbing Seattle Center
02:25PM 47.0017 -124.4658 121° Southeast 547 629 38,900 -60 Descending Seattle Center
02:26PM 46.9208 -124.2808 123° Southeast 545 627 38,900  Level Seattle Center
02:27PM 46.7758 -124.1339 145° Southeast 535 616 38,900  Level Seattle Center
02:28PM 46.6344 -124.1025 171° South 514 592 38,900  Level Seattle Center
02:29PM 46.4992 -124.1564 195° South 501 577 38,900  Level Seattle Center
02:30PM 46.3689 -124.2122 196° South 504 580 38,900  Level Seattle Center
02:31PM 46.2353 -124.2658 196° South 502 578 38,900  Level Seattle Center
02:32PM 46.1006 -124.3228 196° South 504 580 39,000  Climbing Seattle Center
02:33PM 45.9667 -124.3778 196° South 502 578 39,000 -60 Level Seattle Center
02:34PM 45.8319 -124.4311 195° South 503 579 38,900 -60 Descending Seattle Center
02:35PM 45.6992 -124.4831 195° South 498 573 38,900  Level Seattle Center
02:36PM 45.5383 -124.5469 196° South 501 577 38,900  Level Seattle Center
02:37PM 45.4033 -124.6028 196° South 507 583 39,000  Climbing Seattle Center
02:38PM 45.2689 -124.6536 195° South 503 579 38,900 -60 Descending Seattle Center
02:39PM 45.1353 -124.7069 196° South 504 580 38,900  Level Seattle Center
02:40PM 45.0033 -124.7597 196° South 498 573 39,000  Climbing Seattle Center
02:41PM 44.8714 -124.8114 196° South 496 571 38,900 -60 Descending Seattle Center
02:42PM 44.7403 -124.8614 195° South 493 567 38,900  Level Seattle Center
02:43PM 44.6094 -124.9256 199° South 498 573 39,000  Climbing Seattle Center
02:44PM 44.4761 -124.9811 197° South 501 577 39,000  Level Seattle Center
02:45PM 44.3103 -125.0411 195° South 506 582 39,000  Level Seattle Center
02:46PM 44.1700 -125.0925 195° South 516 594 39,000  Level Seattle Center
02:47PM 44.0294 -125.1422 194° South 522 601 39,000  Level Seattle Center
02:48PM 43.8894 -125.1933 195° South 522 601 39,000 -60 Level Seattle Center
02:49PM 43.7503 -125.2433 195° South 520 598 38,900  Descending Seattle Center
02:50PM 43.6119 -125.2919 194° South 517 595 39,000  Climbing Seattle Center
02:51PM 43.4644 -125.3025 183° South 529 609 39,000 -60 Level Seattle Center
02:52PM 43.3100 -125.2594 169° South 553 636 38,900  Descending Seattle Center
02:53PM 43.1547 -125.2178 169° South 562 647 39,000  Climbing Seattle Center
02:54PM 43.0025 -125.1803 170° South 561 646 38,900 -60 Descending Seattle Center
02:55PM 42.8392 -125.1347 168° South 565 650 38,900  Level Seattle Center
02:56PM 42.6850 -125.0961 170° South 566 651 38,900  Level Seattle Center
02:57PM 42.5328 -125.0561 169° South 559 643 38,900  Level Seattle Center
02:58PM 42.3489 -125.0089 169° South 560 644 38,900  Level Seattle Center
02:59PM 42.1983 -124.9711 169° South 553 636 39,000  Climbing Seattle Center
03:00PM 42.0500 -124.9389 171° South 543 625 38,900 -420 Descending Seattle Center
03:01PM 41.9061 -124.9064 170° South 528 608 38,200 -1,620 Descending Seattle Center
03:02PM 41.7658 -124.8733 170° South 516 594 35,700 -2,400 Descending Seattle Center
03:03PM 41.6242 -124.8408 170° South 517 595 33,400 -1,980 Descending Seattle Center
03:04PM 41.4858 -124.8089 170° South 508 585 31,700 -1,680 Descending Seattle Center
03:05PM 41.3519 -124.7783 170° South 493 567 30,100 -1,620 Descending Seattle Center
03:06PM 41.2219 -124.7500 171° South 478 550 28,500 -1,860 Descending Seattle Center
03:08PM 41.0911 -124.7214 171° South 478 550 26,400 -2,280 Descending Seattle Center
03:09PM 40.9656 -124.6914 170° South 465 535 23,900 -2,640 Descending Seattle Center
03:09PM 40.8692 -124.6658 169° South 451 519 21,700 -2,700 Descending Oakland Center
03:10PM 40.7531 -124.6358 169° South 433 498 19,100 -2,520 Descending Oakland Center
03:11PM 40.6211 -124.6025 169° South 413 475 16,600 -2,340 Descending Oakland Center
03:12PM 40.5275 -124.5783 169° South 370 426 14,400 -2,100 Descending Oakland Center
03:13PM 40.4483 -124.5642 172° South 322 371 12,400 -2,220 Descending Oakland Center
03:14PM 40.3800 -124.5525 173° South 282 325 9,900 -2,400 Descending Oakland Center
03:15PM 40.3150 -124.5394 171° South 257 296 7,500 -2,160 Descending Oakland Center
03:16PM 40.2531 -124.5294 173° South 240 276 5,500 -960 Descending Oakland Center
03:18PM 40.1811 -124.5156 172° South 227 261 5,400 -60 Descending Seattle Center
03:19PM 40.1208 -124.5036 171° South 222 255 5,400  Level Oakland Center
03:19PM 40.1208 -124.5036 171° South 223 257 5,400  Level Seattle Center
03:20PM 40.0597 -124.4908 171° South 223 257 5,400  Level Oakland Center
03:21PM 39.9992 -124.4767 170° South 222 255 5,400 -60 Level Oakland Center
03:22PM 39.9386 -124.4628 170° South 222 255 5,300 -60 Descending Oakland Center
03:23PM 39.8789 -124.4494 170° South 221 254 5,300  Level Oakland Center
03:24PM 39.8197 -124.4364 170° South 219 252 5,300 -60 Level Oakland Center
03:25PM 39.7464 -124.4206 171° South 220 253 5,200  Descending Oakland Center
03:26PM 39.6861 -124.4067 170° South 221 254 5,300  Climbing Oakland Center
03:27PM 39.6256 -124.3936 171° South 221 254 5,300  Level Oakland Center
03:28PM 39.5644 -124.3794 170° South 222 255 5,300  Level Oakland Center
03:29PM 39.5033 -124.3672 171° South 222 255 5,300  Level Oakland Center
03:30PM 39.4358 -124.3519 170° South 222 255 5,300 -60 Level Oakland Center
03:31PM 39.3750 -124.3372 169° South 222 255 5,200  Descending Oakland Center
03:32PM 39.3122 -124.3236 170° South 226 260 5,300  Climbing Oakland Center
03:33PM 39.2511 -124.3106 171° South 224 258 5,300  Level Oakland Center
03:34PM 39.1889 -124.2947 169° South 226 260 5,300 -60 Level Oakland Center
03:35PM 39.1278 -124.2828 171° South 224 258 5,200  Descending Oakland Center
03:36PM 39.0669 -124.2681 169° South 224 258 5,300  Climbing Oakland Center
03:37PM 38.9928 -124.2511 170° South 224 258 5,300  Level Oakland Center
03:38PM 38.9314 -124.2375 170° South 225 259 5,300  Level Oakland Center
03:39PM 38.8703 -124.2222 169° South 225 259 5,300  Level Oakland Center
03:40PM 38.8097 -124.2003 164° South 225 259 5,300  Level Oakland Center
03:41PM 38.7578 -124.1603 149° Southeast 220 253 5,300  Level Oakland Center
03:42PM 38.7036 -124.1228 152° Southeast 220 253 5,300  Level Oakland Center
03:43PM 38.6489 -124.0850 152° Southeast 221 254 5,300  Level Oakland Center
03:44PM 38.5950 -124.0486 152° Southeast 221 254 5,300  Level Oakland Center
03:45PM 38.5258 -124.0169 160° South 218 251 5,300  Level Oakland Center
03:46PM 38.4650 -123.9981 166° South 220 253 5,300  Level Oakland Center
03:47PM 38.4050 -123.9706 160° South 224 258 5,300  Level Oakland Center
03:48PM 38.3500 -123.9303 150° Southeast 229 264 5,300  Level Oakland Center
03:49PM 38.3003 -123.8847 144° Southeast 227 261 5,300  Level Oakland Center
03:50PM 38.2528 -123.8408 144° Southeast 221 254 5,300  Level Oakland Center
03:51PM 38.2028 -123.7972 146° Southeast 218 251 5,300  Level Oakland Center
03:52PM 38.1428 -123.7456 146° Southeast 218 251 5,300  Level Oakland Center
03:53PM 38.0933 -123.7025 146° Southeast 217 250 5,300  Level Oakland Center
03:54PM 38.0439 -123.6597 146° Southeast 216 249 5,300  Level Oakland Center
03:55PM 37.9947 -123.6164 145° Southeast 216 249 5,300  Level Oakland Center
03:56PM 37.9461 -123.5725 145° Southeast 216 249 5,300  Level Oakland Center
03:58PM 37.8961 -123.5294 146° Southeast 216 249 5,300  Level Oakland Center
03:59PM 37.8464 -123.4869 146° Southeast 217 250 5,300  Level Oakland Center
04:00PM 37.7978 -123.4431 144° Southeast 216 249 5,300  Level Oakland Center
04:01PM 37.7408 -123.3878 142° Southeast 216 249 5,300  Level Oakland Center
04:02PM 37.6942 -123.3408 141° Southeast 216 249 5,300  Level Oakland Center
04:03PM 37.6469 -123.2931 141° Southeast 217 250 5,300  Level Oakland Center
04:04PM 37.5992 -123.2467 142° Southeast 218 251 5,300  Level Oakland Center
04:05PM 37.5514 -123.2008 143° Southeast 217 250 5,300  Level Oakland Center
04:06PM 37.5044 -123.1542 142° Southeast 217 250 5,300  Level Oakland Center
04:07PM 37.4486 -123.0978 141° Southeast 216 249 5,300  Level Oakland Center
04:08PM 37.4006 -123.0522 143° Southeast 216 249 5,300  Level Oakland Center
04:09PM 37.3542 -123.0061 142° Southeast 215 247 5,300  Level Oakland Center
04:10PM 37.3064 -122.9606 143° Southeast 216 249 5,300  Level Oakland Center
04:11PM 37.2589 -122.9139 142° Southeast 216 249 5,300  Level Oakland Center
04:12PM 37.2178 -122.8611 134° Southeast 214 246 5,300  Level Oakland Center
04:13PM 37.1783 -122.8031 130° Southeast 216 249 5,300  Level Oakland Center
04:14PM 37.1358 -122.7322 127° Southeast 214 246 5,300  Level Oakland Center
04:15PM 37.1042 -122.6703 123° Southeast 212 244 5,300 -60 Level Oakland Center
04:16PM 37.0711 -122.6089 124° Southeast 213 245 5,200 -60 Descending Oakland Center
04:17PM 37.0403 -122.5467 122° Southeast 212 244 5,200  Level Oakland Center
04:18PM 37.0092 -122.4853 122° Southeast 211 243 5,200 -60 Level Oakland Center
04:19PM 36.9786 -122.4244 122° Southeast 210 242 5,100 1,080 Descending Oakland Center
04:20PM 36.9414 -122.3522 123° Southeast 226 260 7,500 2,820 Climbing Oakland Center
04:21PM 36.8967 -122.2583 121° Southeast 302 348 10,900 1,860 Climbing Oakland Center
04:22PM 36.8331 -122.1336 122° Southeast 364 419 11,400 360 Climbing Oakland Center
04:23PM 36.8000 -122.0500 116° Southeast 378 435 11,600 60 Climbing Northern Cal TRACON
04:24PM 36.7333 -121.9333 125° Southeast 427 491 11,600 1,740 Level Northern Cal TRACON
04:26PM 36.5728 -121.6331 124° Southeast 437 503 17,500 2,160 Climbing Oakland Center
04:27PM 36.5028 -121.4972 123° Southeast 462 532 19,000 660 Climbing Oakland Center
04:28PM 36.4297 -121.3547 122° Southeast 485 558 18,900  Descending Oakland Center
04:29PM 36.3572 -121.2158 123° Southeast 481 554 19,000  Climbing Oakland Center
04:30PM 36.2842 -121.0769 123° Southeast 481 554 19,000 -60 Level Oakland Center
04:31PM 36.2119 -120.9353 122° Southeast 486 559 18,900  Descending Oakland Center
04:32PM 36.1386 -120.7975 123° Southeast 480 552 19,000  Climbing Oakland Center
04:33PM 36.0508 -120.6317 123° Southeast 477 549 19,000  Level Oakland Center
04:34PM 35.9778 -120.4925 123° Southeast 479 551 19,000 -60 Level Oakland Center
04:35PM 35.9031 -120.3544 124° Southeast 481 554 18,900 -60 Descending Oakland Center
04:36PM 35.8286 -120.2164 124° Southeast 480 552 18,900  Level Oakland Center
04:38PM 35.7544 -120.0792 124° Southeast 479 551 18,900  Level Oakland Center
04:39PM 35.6797 -119.9408 124° Southeast 480 552 19,000  Climbing Oakland Center
04:40PM 35.6042 -119.8031 124° Southeast 481 554 19,000  Level Oakland Center
04:41PM 35.5289 -119.6644 124° Southeast 483 556 19,000 -60 Level Oakland Center
04:42PM 35.4539 -119.5278 124° Southeast 483 556 18,900 -60 Descending Oakland Center
04:43PM 35.3792 -119.3906 124° Southeast 482 555 18,900 60 Level Oakland Center
04:43PM 35.3328 -119.3072 124° Southeast 486 559 19,000  Climbing Los Angeles Center
04:44PM 35.2725 -119.1969 124° Southeast 488 562 18,900 -60 Descending Los Angeles Center
04:45PM 35.1817 -119.0322 124° Southeast 488 562 18,900  Level Los Angeles Center
04:46PM 35.1042 -118.8972 125° Southeast 485 558 18,900  Level Los Angeles Center
04:47PM 35.0122 -118.7333 124° Southeast 487 560 18,900  Level Los Angeles Center
04:48PM 34.9350 -118.5964 124° Southeast 489 563 19,000  Climbing Los Angeles Center
04:49PM 34.8644 -118.4753 125° Southeast 496 571 19,000  Level Los Angeles Center
04:50PM 34.7761 -118.3178 124° Southeast 479 551 19,000  Level Los Angeles Center
04:51PM 34.7008 -118.1844 124° Southeast 481 554 19,000  Level Los Angeles Center
04:52PM 34.6247 -118.0503 125° Southeast 487 560 19,000 -540 Level Los Angeles Center
04:53PM 34.5619 -117.9142 119° Southeast 468 539 18,000 -1,500 Descending Los Angeles Center
04:55PM 34.5025 -117.7847 119° Southeast 447 514 15,900 -1,740 Descending Los Angeles Center
04:56PM 34.4358 -117.6389 119° Southeast 414 476 14,500 -900 Descending Los Angeles Center
04:57PM 34.3817 -117.5192 119° Southeast 359 413 13,900 -660 Descending Los Angeles Center
04:58PM 34.3369 -117.4222 119° Southeast 334 384 13,100 -960 Descending Los Angeles Center
04:59PM 34.2644 -117.3317 134° Southeast 333 383 12,000 -1,680 Descending Los Angeles Center
05:00PM 34.1789 -117.3086 167° South 309 356 9,700 -2,400 Descending Los Angeles Center
05:01PM 34.0950 -117.3208 187° South 306 352 7,000 -3,000 Descending Los Angeles Center
05:01PM 34.0667 -117.3333 200° South 286 329 5,500 -3,300 Descending Southern California TRACON
05:02PM 34.0000 -117.3167 168° South 254 292 2,600 -1,380 Descending Southern California TRACON
05:03PM 34.0333 -117.2667 51° Northeast 219 252 2,800 120 Climbing Southern California TRACON
05:04PM 34.0500 -117.2000 73° East 186 214 2,900 -180 Climbing Southern California TRACON
05:05PM 34.0833 -117.1667 40° Northeast 157 181 2,500 -720 Descending Southern California TRACON
05:06PM 34.1000 -117.2000 301° West 151 174 1,500 -1,020 Descending Southern California TRACON